Time;durP1;ratioP1;P1;durP2;ratioP2;P2;SDS_P1;SDS_P2;PMS_P1;PMS_P2;Temp;Humidity;BMP_temperature;BMP_pressure;BME280_temperature;BME280_humidity;BME280_pressure;Samples;Min_cycle;Max_cycle;Signal;HPM_P1;HPM_P2
2022/03/10 00:01:55;;;;;;;;;43.50;36.50;;;;;12.60;42.41;101528.81;5061398;28;46172;-48
2022/03/10 00:04:21;;;;;;;;;48.25;39.50;;;;;12.62;42.62;101537.56;5060446;28;45272;-47
2022/03/10 00:06:46;;;;;;;;;49.00;37.75;;;;;12.59;42.34;101532.31;5061793;28;45391;-46
2022/03/10 00:09:11;;;;;;;;;43.75;36.00;;;;;12.59;42.41;101534.97;5061455;28;45244;-50
2022/03/10 00:11:37;;;;;;;;;42.50;36.50;;;;;12.57;42.63;101534.09;5061544;28;45279;-49
2022/03/10 00:14:02;;;;;;;;;43.75;36.75;;;;;12.56;42.42;101539.38;5061655;28;45358;-48
2022/03/10 00:16:27;;;;;;;;;41.75;35.00;;;;;12.56;42.71;101542.88;5061396;28;45219;-49
2022/03/10 00:18:53;;;;;;;;;49.25;39.25;;;;;12.53;42.61;101529.75;5060130;28;45430;-50
2022/03/10 00:21:19;;;;;;;;;32.75;29.00;;;;;12.50;42.57;101532.41;5061425;28;46851;-47
2022/03/10 00:23:45;;;;;;;;;43.00;33.50;;;;;12.47;42.55;101530.66;5061360;28;45352;-48
2022/03/10 00:26:10;;;;;;;;;46.00;35.25;;;;;12.46;42.62;101534.19;5061602;28;45373;-51
2022/03/10 00:28:35;;;;;;;;;44.50;36.25;;;;;12.45;42.53;101529.81;5059995;28;45682;-50
2022/03/10 00:31:01;;;;;;;;;43.00;36.25;;;;;12.41;42.59;101524.59;5061020;28;45806;-46
2022/03/10 00:33:26;;;;;;;;;44.75;35.50;;;;;12.42;42.58;101536.88;5061168;28;45348;-48
2022/03/10 00:35:52;;;;;;;;;44.25;37.00;;;;;12.37;42.41;101533.41;5061641;28;45312;-47
2022/03/10 00:38:18;;;;;;;;;48.50;39.50;;;;;12.37;42.63;101530.78;5061093;28;45387;-48
2022/03/10 00:40:43;;;;;;;;;49.25;38.75;;;;;12.35;42.64;101536.03;5061044;28;45481;-51
2022/03/10 00:43:12;;;;;;;;;44.00;36.25;;;;;12.31;42.64;101531.69;5061091;28;45307;-51
2022/03/10 00:45:38;;;;;;;;;48.25;37.50;;;;;12.30;42.78;101538.75;5061197;28;45221;-48
2022/03/10 00:48:04;;;;;;;;;43.75;37.00;;;;;12.28;42.63;101540.50;5048747;28;45532;-48
2022/03/10 00:50:29;;;;;;;;;49.00;37.75;;;;;12.27;42.61;101532.63;5059689;28;45328;-46
2022/03/10 00:52:55;;;;;;;;;42.50;35.75;;;;;12.25;42.64;101537.91;5059808;28;45355;-46
2022/03/10 00:55:21;;;;;;;;;45.50;37.25;;;;;12.24;42.84;101537.91;5056192;28;45307;-49
2022/03/10 00:57:48;;;;;;;;;37.50;31.50;;;;;12.22;42.72;101545.81;5060986;28;45268;-47
2022/03/10 01:00:14;;;;;;;;;46.25;37.00;;;;;12.19;42.57;101535.31;5060311;28;46265;-47
2022/03/10 01:02:39;;;;;;;;;52.50;39.25;;;;;12.17;42.70;101534.44;5060834;28;45422;-50
2022/03/10 01:05:06;;;;;;;;;44.25;35.50;;;;;12.15;42.77;101545.00;5060898;28;45308;-47
2022/03/10 01:07:32;;;;;;;;;44.00;36.00;;;;;12.10;42.63;101538.91;5059539;28;45212;-47
2022/03/10 01:09:57;;;;;;;;;42.50;36.00;;;;;12.10;42.69;101538.91;5059003;28;48252;-47
2022/03/10 01:12:23;;;;;;;;;37.75;32.25;;;;;12.09;43.04;101541.53;5060678;28;45243;-47
2022/03/10 01:14:48;;;;;;;;;39.00;34.00;;;;;12.07;42.70;101543.31;5060792;28;45287;-46
2022/03/10 01:17:14;;;;;;;;;38.00;32.00;;;;;12.03;42.49;101538.06;5060199;28;45394;-46
2022/03/10 01:19:39;;;;;;;;;42.50;36.25;;;;;12.02;42.70;101541.59;5060410;28;46365;-46
2022/03/10 01:22:06;;;;;;;;;47.75;36.50;;;;;11.99;42.67;101541.63;5060506;28;45292;-47
2022/03/10 01:24:32;;;;;;;;;42.75;33.75;;;;;11.97;42.72;101540.72;5059293;28;45329;-50
2022/03/10 01:26:57;;;;;;;;;37.75;34.50;;;;;11.94;42.70;101538.09;5060394;28;45552;-48
2022/03/10 01:29:22;;;;;;;;;38.00;32.75;;;;;11.92;42.49;101533.72;5060330;28;46308;-47
2022/03/10 01:31:48;;;;;;;;;39.50;35.50;;;;;11.90;42.91;101532.84;5060063;28;45379;-50
2022/03/10 01:34:13;;;;;;;;;42.75;34.00;;;;;11.89;42.74;101528.50;5060695;28;45325;-49
2022/03/10 01:36:39;;;;;;;;;32.25;31.75;;;;;11.87;42.81;101529.38;5060320;28;45476;-48
2022/03/10 01:39:04;;;;;;;;;43.25;36.00;;;;;11.86;42.62;101534.63;5060264;28;46128;-48
2022/03/10 01:41:34;;;;;;;;;40.50;33.25;;;;;11.85;42.58;101543.44;5060023;28;45312;-50
2022/03/10 01:44:05;;;;;;;;;36.75;32.50;;;;;11.81;42.42;101539.97;5060606;28;45399;-51
2022/03/10 01:46:31;;;;;;;;;45.50;35.00;;;;;11.81;42.71;101523.25;5059946;28;45523;-50
2022/03/10 01:48:56;;;;;;;;;36.50;34.25;;;;;11.77;42.67;101532.06;5046481;28;45257;-50
2022/03/10 01:51:23;;;;;;;;;40.75;33.75;;;;;11.77;42.56;101532.06;5060053;28;45356;-52
2022/03/10 01:53:50;;;;;;;;;38.75;32.75;;;;;11.75;42.57;101531.19;5058739;28;45374;-49
2022/03/10 01:56:17;;;;;;;;;44.00;35.50;;;;;11.73;42.63;101533.84;5054956;28;45521;-48
2022/03/10 01:58:43;;;;;;;;;40.50;35.50;;;;;11.71;42.58;101536.50;5058584;28;46341;-51
2022/03/10 02:01:10;;;;;;;;;41.25;35.75;;;;;11.69;42.36;101533.00;5059395;28;45327;-49
2022/03/10 02:03:39;;;;;;;;;42.50;34.75;;;;;11.68;42.70;101536.53;5058933;28;45275;-51
2022/03/10 02:06:05;;;;;;;;;38.75;34.00;;;;;11.63;42.68;101527.75;5059928;28;45182;-51
2022/03/10 02:11:16;;;;;;;;;41.25;34.00;;;;;11.60;42.78;101519.91;5059956;28;45316;-51
2022/03/10 02:13:41;;;;;;;;;39.50;32.50;;;;;11.59;42.68;101525.19;5059984;28;45292;-50
2022/03/10 02:18:58;;;;;;;;;38.75;34.75;;;;;11.53;42.56;101531.34;5055732;28;45400;-51
2022/03/10 02:21:23;;;;;;;;;40.25;34.00;;;;;11.53;42.71;101523.44;5063371;28;45271;-49
2022/03/10 02:23:49;;;;;;;;;38.00;33.75;;;;;11.50;42.75;101518.22;5063385;28;45170;-49
2022/03/10 02:26:15;;;;;;;;;37.50;32.50;;;;;11.47;42.60;101524.38;5063414;28;45764;-50
2022/03/10 02:28:41;;;;;;;;;31.50;29.00;;;;;11.46;42.61;101516.44;5061991;28;46288;-50
2022/03/10 02:31:07;;;;;;;;;27.75;22.00;;;;;11.44;42.77;101523.50;5063059;28;45346;-51
2022/03/10 02:33:33;;;;;;;;;40.75;34.00;;;;;11.44;42.54;101518.25;5063188;28;45332;-50
2022/03/10 02:35:58;;;;;;;;;31.00;30.50;;;;;11.41;42.63;101515.59;5063334;28;45320;-52
2022/03/10 02:38:24;;;;;;;;;35.75;33.50;;;;;11.42;42.74;101520.00;5063135;28;46173;-48
2022/03/10 02:40:50;;;;;;;;;33.50;29.25;;;;;11.42;42.61;101517.38;5062856;28;45357;-47
2022/03/10 02:43:17;;;;;;;;;31.25;30.75;;;;;11.40;42.60;101519.16;5063234;28;45296;-49
2022/03/10 02:45:42;;;;;;;;;35.50;31.75;;;;;11.39;42.63;101523.53;5062902;28;45400;-49
2022/03/10 02:48:08;;;;;;;;;35.50;31.75;;;;;11.36;42.58;101521.78;5050102;28;45406;-48
2022/03/10 02:50:34;;;;;;;;;32.50;25.50;;;;;11.34;42.90;101523.53;5062315;28;45259;-51
2022/03/10 02:52:59;;;;;;;;;32.75;26.75;;;;;11.34;42.63;101530.56;5063246;28;45292;-46
2022/03/10 02:55:24;;;;;;;;;35.00;31.00;;;;;11.33;42.59;101531.44;5057516;28;47038;-46
2022/03/10 02:57:50;;;;;;;;;31.00;28.50;;;;;11.30;42.67;101532.34;5062773;28;45406;-46
2022/03/10 03:00:17;;;;;;;;;37.25;32.50;;;;;11.29;42.82;101532.34;5062188;28;45374;-51
2022/03/10 03:02:43;;;;;;;;;33.75;31.50;;;;;11.27;42.79;101532.34;5062952;28;45327;-50
2022/03/10 03:05:13;;;;;;;;;36.25;33.50;;;;;11.27;42.86;101536.72;5061471;28;45544;-51
2022/03/10 03:07:42;;;;;;;;;38.00;33.00;;;;;11.25;42.73;101539.38;5062305;28;46214;-50
2022/03/10 03:10:08;;;;;;;;;38.75;31.25;;;;;11.22;42.85;101539.41;5061328;28;45324;-50
2022/03/10 03:12:34;;;;;;;;;38.00;33.75;;;;;11.20;42.79;101535.88;5061222;28;45368;-50
2022/03/10 03:15:00;;;;;;;;;40.25;31.75;;;;;11.20;42.87;101536.75;5062389;28;45407;-50
2022/03/10 03:17:25;;;;;;;;;40.25;33.00;;;;;11.20;42.86;101541.16;5065956;28;45400;-50
2022/03/10 03:19:52;;;;;;;;;34.50;31.25;;;;;11.17;42.89;101547.31;5061293;28;45254;-49
2022/03/10 03:22:17;;;;;;;;;39.75;33.50;;;;;11.14;42.87;101539.41;5062556;28;45232;-48
2022/03/10 03:24:45;;;;;;;;;42.50;33.50;;;;;11.12;42.71;101540.28;5062464;28;45565;-48
2022/03/10 03:27:11;;;;;;;;;26.75;26.00;;;;;11.09;42.59;101538.53;5062183;28;45418;-51
2022/03/10 03:29:37;;;;;;;;;38.50;35.00;;;;;11.08;42.90;101543.81;5060228;28;45387;-50
2022/03/10 03:32:03;;;;;;;;;38.00;32.00;;;;;11.04;42.83;101543.84;5060977;28;45326;-51
2022/03/10 03:34:28;;;;;;;;;31.25;29.75;;;;;11.02;42.83;101542.09;5062267;28;45323;-47
2022/03/10 03:36:53;;;;;;;;;31.25;28.25;;;;;11.00;42.99;101552.59;5060794;28;48309;-48
2022/03/10 03:39:19;;;;;;;;;34.00;29.50;;;;;11.00;42.96;101549.97;5060709;28;45303;-50
2022/03/10 03:41:45;;;;;;;;;38.50;34.00;;;;;10.98;42.87;101551.75;5062227;28;45299;-50
2022/03/10 03:44:10;;;;;;;;;38.00;33.25;;;;;10.97;43.07;101550.00;5060943;28;45221;-49
2022/03/10 03:46:37;;;;;;;;;39.25;34.50;;;;;10.96;42.92;101557.91;5061814;28;45291;-51
2022/03/10 03:49:03;;;;;;;;;37.75;33.25;;;;;10.95;43.08;101558.78;5047685;28;45212;-49
2022/03/10 03:51:28;;;;;;;;;38.25;32.50;;;;;10.93;42.88;101555.25;5062058;28;45356;-49
2022/03/10 03:53:54;;;;;;;;;35.00;31.00;;;;;10.90;43.07;101561.41;5061991;28;45216;-46
2022/03/10 03:56:19;;;;;;;;;32.00;30.50;;;;;10.88;43.01;101552.66;5056662;28;45359;-51
2022/03/10 03:58:45;;;;;;;;;38.00;33.75;;;;;10.85;42.88;101547.41;5060639;28;45801;-49
2022/03/10 04:01:10;;;;;;;;;33.75;32.00;;;;;10.85;43.03;101553.50;5061644;28;45260;-48
2022/03/10 04:03:36;;;;;;;;;36.00;31.75;;;;;10.84;42.97;101561.41;5060707;28;45631;-48
2022/03/10 04:06:01;;;;;;;;;35.00;31.75;;;;;10.82;43.02;101561.44;5061572;28;46946;-47
2022/03/10 04:08:26;;;;;;;;;38.75;32.00;;;;;10.81;43.18;101566.69;5060398;28;45401;-47
2022/03/10 04:10:52;;;;;;;;;44.50;35.00;;;;;10.79;43.02;101564.06;5061793;28;45308;-47
2022/03/10 04:13:19;;;;;;;;;32.00;27.50;;;;;10.78;43.09;101569.31;5061635;28;45591;-49
2022/03/10 04:15:44;;;;;;;;;37.50;32.00;;;;;10.76;42.95;101571.94;5061198;28;46232;-48
2022/03/10 04:18:10;;;;;;;;;35.50;32.25;;;;;10.75;43.11;101571.97;5061511;28;45166;-52
2022/03/10 04:20:36;;;;;;;;;38.50;32.75;;;;;10.73;43.09;101571.97;5061495;28;45224;-49
2022/03/10 04:23:01;;;;;;;;;36.50;32.50;;;;;10.69;43.04;101563.22;5061614;28;45529;-48
2022/03/10 04:25:27;;;;;;;;;31.75;28.00;;;;;10.68;43.02;101564.09;5061356;28;45349;-50
2022/03/10 04:27:56;;;;;;;;;43.25;33.75;;;;;10.68;43.07;101569.34;5048125;28;45223;-50
2022/03/10 04:30:22;;;;;;;;;38.00;32.25;;;;;10.66;43.08;101572.84;5061147;28;45211;-50
2022/03/10 04:32:49;;;;;;;;;41.50;32.50;;;;;10.63;43.42;101571.09;5061408;28;45439;-48
2022/03/10 04:35:17;;;;;;;;;42.75;32.50;;;;;10.60;43.30;101571.09;5059855;28;47308;-50
2022/03/10 04:37:46;;;;;;;;;38.75;30.75;;;;;10.61;43.07;101572.84;5061439;28;45186;-50
2022/03/10 04:40:12;;;;;;;;;35.75;32.00;;;;;10.56;43.16;101570.25;5060990;28;45391;-49
2022/03/10 04:42:38;;;;;;;;;42.75;35.50;;;;;10.55;43.35;101576.38;5061116;28;45407;-47
2022/03/10 04:45:05;;;;;;;;;37.00;31.25;;;;;10.53;43.41;101574.63;5060820;28;46296;-50
2022/03/10 04:47:30;;;;;;;;;36.50;34.00;;;;;10.53;43.50;101569.38;5056477;28;46012;-50
2022/03/10 04:49:57;;;;;;;;;38.00;33.50;;;;;10.48;43.32;101568.50;5055168;28;45331;-49
2022/03/10 04:52:28;;;;;;;;;43.00;32.75;;;;;10.48;43.23;101573.75;5061055;28;45257;-49
2022/03/10 04:54:55;;;;;;;;;42.00;32.50;;;;;10.46;43.23;101578.13;5057768;28;45430;-47
2022/03/10 04:57:21;;;;;;;;;40.75;35.50;;;;;10.48;43.46;101585.13;5061134;28;45221;-48
2022/03/10 04:59:46;;;;;;;;;36.00;32.50;;;;;10.46;43.24;101578.97;5060853;28;45237;-55
2022/03/10 05:02:12;;;;;;;;;37.25;34.75;;;;;10.45;43.32;101582.47;5059726;28;46017;-54
2022/03/10 05:04:37;;;;;;;;;40.50;36.00;;;;;10.44;43.44;101579.88;5060769;28;46275;-48
2022/03/10 05:07:04;;;;;;;;;35.50;32.75;;;;;10.42;43.07;101574.63;5061145;28;45154;-50
2022/03/10 05:09:29;;;;;;;;;33.25;30.25;;;;;10.40;43.43;101579.88;5060539;28;45424;-54
2022/03/10 05:11:54;;;;;;;;;42.25;32.50;;;;;10.39;43.53;101574.63;5060969;28;45394;-48
2022/03/10 05:14:20;;;;;;;;;40.75;34.00;;;;;10.36;43.46;101567.63;5060648;28;45389;-46
2022/03/10 05:16:45;;;;;;;;;42.50;34.75;;;;;10.36;43.53;101577.25;5062974;28;45460;-46
2022/03/10 05:19:11;;;;;;;;;37.50;32.75;;;;;10.33;43.38;101567.56;5060724;28;45264;-46
2022/03/10 05:21:36;;;;;;;;;39.50;33.50;;;;;10.32;43.42;101570.22;5060525;28;45435;-45
2022/03/10 05:24:02;;;;;;;;;32.75;28.25;;;;;10.30;43.65;101574.56;5060174;28;45405;-51
2022/03/10 05:26:28;;;;;;;;;32.75;30.50;;;;;10.25;43.75;101575.47;5059306;28;45266;-56
2022/03/10 05:28:53;;;;;;;;;37.25;32.25;;;;;10.24;43.70;101576.34;5060536;28;46065;-50
2022/03/10 05:31:19;;;;;;;;;35.50;30.50;;;;;10.20;43.65;101569.34;5060307;28;45479;-49
2022/03/10 05:33:44;;;;;;;;;41.50;35.00;;;;;10.17;43.64;101568.44;5058832;28;47218;-51
2022/03/10 05:36:09;;;;;;;;;37.25;33.00;;;;;10.15;43.58;101564.94;5059311;28;45402;-52
2022/03/10 05:38:35;;;;;;;;;32.75;31.00;;;;;10.12;43.75;101564.94;5060493;28;45651;-49
2022/03/10 05:41:00;;;;;;;;;43.75;35.00;;;;;10.10;43.78;101570.22;5060239;28;45382;-52
2022/03/10 05:43:26;;;;;;;;;36.50;30.75;;;;;10.07;43.81;101567.56;5060026;28;46145;-51
2022/03/10 05:45:51;;;;;;;;;37.50;33.50;;;;;10.06;43.76;101563.19;5060233;28;45327;-50
2022/03/10 05:48:16;;;;;;;;;39.25;33.75;;;;;10.04;43.68;101563.19;5046790;28;45505;-52
2022/03/10 05:50:42;;;;;;;;;43.00;35.75;;;;;10.02;43.85;101567.53;5060308;28;45287;-53
2022/03/10 05:53:08;;;;;;;;;35.00;30.00;;;;;10.04;43.69;101575.44;5057833;28;45242;-49
2022/03/10 05:55:33;;;;;;;;;42.00;33.75;;;;;10.03;43.98;101571.94;5055713;28;45236;-53
2022/03/10 05:57:59;;;;;;;;;26.25;24.75;;;;;10.02;43.69;101575.41;5059929;28;45449;-49
2022/03/10 06:00:24;;;;;;;;;38.25;35.00;;;;;10.00;43.80;101574.56;5059863;28;45303;-50
2022/03/10 06:02:49;;;;;;;;;40.50;35.25;;;;;10.00;43.69;101573.66;5057955;28;46251;-48
2022/03/10 06:05:16;;;;;;;;;41.00;34.50;;;;;9.97;43.80;101571.91;5060132;28;45384;-49
2022/03/10 06:07:41;;;;;;;;;40.75;35.75;;;;;9.95;43.96;101576.31;5059664;28;45256;-47
2022/03/10 06:10:07;;;;;;;;;42.25;35.25;;;;;9.92;43.92;101571.94;5059806;28;45296;-49
2022/03/10 06:12:33;;;;;;;;;38.25;33.00;;;;;9.92;44.21;101577.19;5059580;28;45453;-49
2022/03/10 06:15:01;;;;;;;;;39.50;34.75;;;;;9.91;43.94;101587.66;5059619;28;45463;-49
2022/03/10 06:17:27;;;;;;;;;35.75;31.25;;;;;9.89;44.09;101582.41;5063363;28;45182;-49
2022/03/10 06:19:53;;;;;;;;;40.50;33.75;;;;;9.88;44.06;101587.66;5059706;28;45236;-52
2022/03/10 06:22:23;;;;;;;;;37.00;33.00;;;;;9.87;44.08;101585.91;5058130;28;46995;-50
2022/03/10 06:24:49;;;;;;;;;42.50;37.00;;;;;9.84;44.13;101578.03;5059567;28;45390;-51
2022/03/10 06:27:16;;;;;;;;;43.50;35.50;;;;;9.82;44.15;101583.25;5058341;28;45494;-50
2022/03/10 06:29:42;;;;;;;;;39.75;35.75;;;;;9.82;44.29;101587.66;5058268;28;45356;-50
2022/03/10 06:32:07;;;;;;;;;40.75;33.00;;;;;9.79;44.25;101585.03;5059320;28;45303;-51
2022/03/10 06:34:33;;;;;;;;;37.50;33.00;;;;;9.78;44.09;101584.13;5059861;28;45338;-48
2022/03/10 06:36:59;;;;;;;;;32.00;28.75;;;;;9.75;44.17;101585.00;5059557;28;45249;-49
2022/03/10 06:39:25;;;;;;;;;44.00;34.50;;;;;9.75;43.97;101595.50;5059560;28;45222;-49
2022/03/10 06:41:50;;;;;;;;;39.50;34.25;;;;;9.73;44.27;101597.22;5059185;28;45430;-49
2022/03/10 06:44:16;;;;;;;;;34.50;32.50;;;;;9.70;44.26;101586.75;5058197;28;45346;-52
2022/03/10 06:46:41;;;;;;;;;60.00;41.00;;;;;9.73;44.19;101593.75;5056534;28;45885;-59
2022/03/10 06:49:07;;;;;;;;;42.00;36.00;;;;;9.73;44.39;101591.97;5061661;28;45553;-52
2022/03/10 06:51:32;;;;;;;;;37.25;32.50;;;;;9.72;44.15;101594.63;5058706;28;45933;-54
2022/03/10 06:53:58;;;;;;;;;38.75;35.25;;;;;9.70;44.21;101592.00;5058696;28;45419;-53
2022/03/10 06:56:25;;;;;;;;;38.25;33.00;;;;;9.69;44.51;101584.97;5049779;28;45687;-51
2022/03/10 06:58:50;;;;;;;;;43.00;35.50;;;;;9.69;44.01;101603.34;5057639;28;45506;-49
2022/03/10 07:01:17;;;;;;;;;44.00;37.50;;;;;9.68;44.60;101598.97;5058232;28;46618;-53
2022/03/10 07:03:42;;;;;;;;;36.00;31.25;;;;;9.68;44.34;101598.97;5057922;28;45362;-49
2022/03/10 07:06:08;;;;;;;;;41.25;33.25;;;;;9.68;44.43;101603.34;5061656;28;45504;-52
2022/03/10 07:08:34;;;;;;;;;38.00;33.00;;;;;9.68;44.21;101605.97;5062311;28;45526;-53
2022/03/10 07:10:59;;;;;;;;;39.50;34.00;;;;;9.65;44.66;101605.94;5060947;28;47504;-51
2022/03/10 07:13:24;;;;;;;;;40.25;34.50;;;;;9.65;44.72;101608.56;5061760;28;45252;-53
2022/03/10 07:15:50;;;;;;;;;37.00;33.25;;;;;9.64;44.50;101604.22;5062327;28;45357;-52
2022/03/10 07:18:15;;;;;;;;;36.75;31.25;;;;;9.64;44.91;101612.97;5062451;28;45359;-53
2022/03/10 07:20:40;;;;;;;;;41.25;35.00;;;;;9.65;44.63;101624.31;5062219;28;45461;-52
2022/03/10 07:23:06;;;;;;;;;34.50;32.75;;;;;9.65;44.66;101619.97;5062559;28;45255;-52
2022/03/10 07:25:31;;;;;;;;;35.75;32.00;;;;;9.63;44.70;101612.97;5061134;28;45499;-51
2022/03/10 07:27:57;;;;;;;;;37.25;32.75;;;;;9.66;44.61;101620.84;5062665;28;45449;-52
2022/03/10 07:30:22;;;;;;;;;39.00;32.50;;;;;9.66;44.62;101626.97;5061920;28;46383;-52
2022/03/10 07:32:48;;;;;;;;;35.50;32.75;;;;;9.66;44.87;101626.09;5062577;28;45391;-50
2022/03/10 07:35:13;;;;;;;;;37.00;32.50;;;;;9.68;44.85;101616.47;5062297;28;45412;-53
2022/03/10 07:37:38;;;;;;;;;32.25;28.75;;;;;9.68;45.07;101621.72;5062401;28;45367;-51
2022/03/10 07:40:04;;;;;;;;;37.00;32.50;;;;;9.69;44.99;101626.13;5061979;28;45437;-52
2022/03/10 07:42:30;;;;;;;;;42.00;34.50;;;;;9.70;44.95;101623.50;5062072;28;45363;-53
2022/03/10 07:44:55;;;;;;;;;36.75;33.00;;;;;9.69;44.93;101613.84;5061854;28;45303;-53
2022/03/10 07:47:20;;;;;;;;;41.25;34.50;;;;;9.73;44.87;101626.09;5056156;28;45212;-51
2022/03/10 07:49:46;;;;;;;;;38.00;32.25;;;;;9.76;44.78;101625.28;5054706;28;45370;-52
2022/03/10 07:52:11;;;;;;;;;34.50;32.75;;;;;9.79;45.13;101629.66;5062035;28;45236;-52
2022/03/10 07:54:36;;;;;;;;;36.25;33.50;;;;;9.81;44.85;101631.41;5057720;28;45355;-50
2022/03/10 07:57:02;;;;;;;;;42.25;34.75;;;;;9.85;45.20;101632.28;5061643;28;45189;-51
2022/03/10 07:59:28;;;;;;;;;45.50;37.25;;;;;9.88;45.02;101627.03;5061769;28;46249;-52
2022/03/10 08:01:55;;;;;;;;;40.50;32.50;;;;;9.90;45.17;101631.44;5061689;28;45322;-50
2022/03/10 08:04:20;;;;;;;;;35.00;31.75;;;;;9.89;45.13;101629.66;5060545;28;45457;-49
2022/03/10 08:06:46;;;;;;;;;41.25;35.75;;;;;9.92;45.01;101634.94;5062104;28;45445;-49
2022/03/10 08:09:11;;;;;;;;;34.50;30.00;;;;;9.95;45.25;101627.94;5061404;28;46190;-52
2022/03/10 08:11:39;;;;;;;;;36.75;33.50;;;;;9.97;45.33;101632.31;5060607;28;45373;-53
2022/03/10 08:14:05;;;;;;;;;34.50;32.25;;;;;10.00;45.35;101632.34;5059872;28;45422;-54
2022/03/10 08:16:31;;;;;;;;;39.25;32.25;;;;;10.02;45.21;101625.31;5055323;28;45209;-56
2022/03/10 08:18:56;;;;;;;;;39.25;33.75;;;;;10.05;45.35;101627.97;5063647;28;46059;-57
2022/03/10 08:21:22;;;;;;;;;36.50;32.50;;;;;10.11;45.47;101628.84;5060100;28;45337;-58
2022/03/10 08:23:47;;;;;;;;;37.25;31.00;;;;;10.14;45.27;101629.72;5066152;28;45280;-55
2022/03/10 08:26:13;;;;;;;;;35.75;32.00;;;;;10.18;45.41;101633.25;5069034;28;45140;-56
2022/03/10 08:28:39;;;;;;;;;40.00;31.75;;;;;10.23;45.42;101615.75;5060050;28;46658;-56
2022/03/10 08:31:04;;;;;;;;;35.50;32.00;;;;;10.29;45.32;101625.38;5061324;28;45430;-58
2022/03/10 08:33:31;;;;;;;;;38.75;34.00;;;;;10.32;45.38;101621.00;5067404;28;45355;-55
2022/03/10 08:35:56;;;;;;;;;35.25;31.50;;;;;10.37;45.58;101619.28;5059565;28;45449;-56
2022/03/10 08:38:22;;;;;;;;;31.75;29.25;;;;;10.43;45.57;101621.03;5061242;28;46602;-56
2022/03/10 08:40:47;;;;;;;;;39.00;32.00;;;;;10.49;45.46;101620.16;5061018;28;45470;-54
2022/03/10 08:43:13;;;;;;;;;34.00;31.50;;;;;10.53;45.55;101608.78;5060082;28;45415;-53
2022/03/10 08:45:40;;;;;;;;;34.25;29.75;;;;;10.61;45.31;101609.66;5060647;28;45355;-52
2022/03/10 08:48:06;;;;;;;;;29.25;26.00;;;;;10.66;45.33;101612.28;5059935;28;46176;-55
2022/03/10 08:50:31;;;;;;;;;36.75;32.75;;;;;10.72;45.68;101601.75;5060738;28;45391;-53
2022/03/10 08:52:57;;;;;;;;;39.00;33.25;;;;;10.78;45.69;101596.50;5061097;28;45220;-54
2022/03/10 08:55:23;;;;;;;;;34.50;29.75;;;;;10.87;45.62;101600.88;5058994;28;45383;-57
2022/03/10 08:57:49;;;;;;;;;30.75;28.50;;;;;10.93;45.61;101603.50;5081466;27;46691;-55
2022/03/10 09:00:15;;;;;;;;;32.00;29.50;;;;;10.98;45.62;101599.09;5058381;28;45394;-54
2022/03/10 09:02:41;;;;;;;;;33.00;31.75;;;;;11.08;45.57;101593.81;5054888;28;45474;-56
2022/03/10 09:05:08;;;;;;;;;35.50;32.00;;;;;11.09;45.81;101585.03;5064647;28;45474;-56
2022/03/10 09:07:35;;;;;;;;;28.75;27.00;;;;;11.22;45.46;101589.38;5053852;28;46224;-56
2022/03/10 09:10:00;;;;;;;;;29.25;27.25;;;;;11.30;45.59;101590.22;5068902;27;45379;-56
2022/03/10 09:12:27;;;;;;;;;31.25;29.00;;;;;11.40;45.86;101593.69;5056234;28;45485;-57
2022/03/10 09:14:53;;;;;;;;;33.50;29.75;;;;;11.45;45.72;101588.44;5055862;28;45372;-58
2022/03/10 09:17:19;;;;;;;;;33.75;28.75;;;;;11.57;45.66;101600.63;5060129;28;46162;-58
2022/03/10 09:19:45;;;;;;;;;35.00;31.00;;;;;11.66;45.52;101590.06;5065451;28;45808;-58
2022/03/10 09:22:10;;;;;;;;;30.25;28.75;;;;;11.76;45.59;101593.53;5058974;28;45608;-57
2022/03/10 09:24:36;;;;;;;;;37.00;31.75;;;;;11.86;45.82;101585.56;5060315;28;45465;-58
2022/03/10 09:27:02;;;;;;;;;31.50;28.25;;;;;11.97;45.61;101584.66;5060136;28;46810;-59
2022/03/10 09:29:27;;;;;;;;;31.50;29.25;;;;;12.09;45.67;101584.56;5058263;28;45362;-58
2022/03/10 09:31:53;;;;;;;;;38.25;31.25;;;;;12.20;45.75;101589.78;5060446;28;45453;-59
2022/03/10 09:34:18;;;;;;;;;31.50;29.00;;;;;12.32;45.50;101589.66;5060457;28;45485;-59
2022/03/10 09:36:43;;;;;;;;;33.00;30.00;;;;;12.44;45.67;101587.81;5060224;28;45378;-59
2022/03/10 09:39:09;;;;;;;;;30.50;27.50;;;;;12.54;45.51;101586.88;5058774;28;45307;-59
2022/03/10 09:41:37;;;;;;;;;39.00;32.00;;;;;12.66;45.38;101588.50;5042281;28;45463;-59
2022/03/10 09:44:11;;;;;;;;;31.00;27.25;;;;;12.80;45.81;101585.72;5060079;28;45461;-59
2022/03/10 09:46:37;;;;;;;;;31.00;28.50;;;;;12.93;45.56;101581.19;5065886;28;45838;-58
2022/03/10 09:49:03;;;;;;;;;32.00;30.25;;;;;13.06;45.30;101585.47;5046590;28;45469;-55
2022/03/10 09:51:29;;;;;;;;;34.25;30.00;;;;;13.17;45.38;101577.44;5059817;28;45477;-59
2022/03/10 09:53:54;;;;;;;;;29.75;27.25;;;;;13.29;45.75;101579.91;5060002;28;45257;-58
2022/03/10 09:56:20;;;;;;;;;35.50;31.75;;;;;13.45;45.44;101577.13;5054867;28;45458;-58
2022/03/10 09:58:46;;;;;;;;;31.50;28.50;;;;;13.58;45.61;101567.25;5059537;28;45447;-59
2022/03/10 10:01:11;;;;;;;;;32.25;30.00;;;;;13.72;45.30;101577.63;5058027;28;45383;-58
2022/03/10 10:03:37;;;;;;;;;30.00;28.25;;;;;13.85;45.54;101558.09;5059476;28;45520;-58
2022/03/10 10:06:04;;;;;;;;;28.75;24.75;;;;;13.99;45.56;101560.50;5059688;28;45953;-59
2022/03/10 10:08:38;;;;;;;;;33.00;27.50;;;;;14.13;45.25;101562.94;5058536;28;45465;-58
2022/03/10 10:11:04;;;;;;;;;28.75;28.75;;;;;14.28;45.29;101567.97;5059902;28;45312;-58
2022/03/10 10:13:39;;;;;;;;;24.75;23.00;;;;;14.42;45.09;101561.59;5059980;28;45456;-58
2022/03/10 10:16:07;;;;;;;;;27.75;25.00;;;;;14.53;45.28;101559.63;5059216;28;46909;-59
2022/03/10 10:18:34;;;;;;;;;20.50;19.00;;;;;14.66;45.47;101554.16;5059512;28;45263;-58
2022/03/10 10:21:00;;;;;;;;;33.00;29.75;;;;;14.81;45.26;101553.84;5058421;28;45336;-59
2022/03/10 10:23:27;;;;;;;;;29.25;28.00;;;;;14.93;44.91;101556.28;5059789;28;45342;-58
2022/03/10 10:25:59;;;;;;;;;27.25;24.25;;;;;15.07;45.42;101553.34;5059426;28;46188;-58
2022/03/10 10:28:28;;;;;;;;;25.75;24.25;;;;;15.20;45.20;101559.25;5058479;28;45334;-58
2022/03/10 10:30:57;;;;;;;;;26.00;24.75;;;;;15.32;45.04;101547.56;5059433;28;45469;-60
2022/03/10 10:33:24;;;;;;;;;21.50;21.50;;;;;15.44;44.87;101549.06;5059639;28;45170;-58
2022/03/10 10:35:50;;;;;;;;;24.75;23.25;;;;;15.54;45.20;101547.09;5059408;28;45390;-58
2022/03/10 10:38:29;;;;;;;;;23.25;22.50;;;;;15.70;45.07;101543.19;5059527;28;45443;-59
2022/03/10 10:41:20;;;;;;;;;22.75;22.75;;;;;15.85;45.09;101536.69;5051549;28;45445;-58
2022/03/10 10:43:47;;;;;;;;;27.25;24.25;;;;;15.99;45.00;101532.84;5062900;28;45349;-58
2022/03/10 10:46:28;;;;;;;;;22.75;22.75;;;;;16.15;44.85;101525.38;5061466;28;46836;-59
2022/03/10 10:48:54;;;;;;;;;27.75;25.50;;;;;16.30;44.96;101534.72;5063838;28;45342;-59
2022/03/10 10:51:30;;;;;;;;;21.50;20.75;;;;;16.43;44.81;101528.19;5063059;28;45330;-59
2022/03/10 10:53:59;;;;;;;;;21.50;17.00;;;;;16.58;44.62;101519.81;5049981;28;45412;-58
2022/03/10 10:56:28;;;;;;;;;30.25;26.25;;;;;16.74;44.58;101522.06;5057746;28;46388;-59
2022/03/10 10:58:54;;;;;;;;;21.25;18.50;;;;;16.89;44.63;101519.00;5062979;28;45381;-59
2022/03/10 11:01:31;;;;;;;;;20.00;20.00;;;;;17.05;44.81;101511.47;5062417;28;45189;-60
2022/03/10 11:03:57;;;;;;;;;22.50;17.50;;;;;17.24;44.49;101499.44;5061877;28;45400;-59
2022/03/10 11:06:22;;;;;;;;;19.00;17.75;;;;;17.41;44.48;101504.22;5061249;28;46830;-59
2022/03/10 11:08:48;;;;;;;;;19.25;18.50;;;;;17.55;44.41;101494.91;5061277;28;45394;-58
2022/03/10 11:11:15;;;;;;;;;18.00;14.25;;;;;17.73;44.15;101497.91;5061447;28;45471;-59
2022/03/10 11:13:41;;;;;;;;;17.00;15.00;;;;;17.91;44.44;101498.22;5062653;28;45530;-59